Time;durP1;ratioP1;P1;durP2;ratioP2;P2;SDS_P1;SDS_P2;PMS_P1;PMS_P2;Temp;Humidity;BMP_temperature;BMP_pressure;BME280_temperature;BME280_humidity;BME280_pressure;Samples;Min_cycle;Max_cycle;Signal;HPM_P1;HPM_P2
2023/09/09 00:00:56;;;;;;;5.07;3.00;;;17.90;99.90;;;;;;5111008;28;20042;-84
2023/09/09 00:03:22;;;;;;;4.50;2.55;;;17.90;99.90;;;;;;5110605;28;20084;-86
2023/09/09 00:05:49;;;;;;;6.00;2.97;;;17.90;99.90;;;;;;5109564;28;20055;-85
2023/09/09 00:08:16;;;;;;;4.93;2.50;;;17.90;99.90;;;;;;5110624;28;20047;-84
2023/09/09 00:10:42;;;;;;;4.65;2.55;;;17.80;99.90;;;;;;5110729;28;20085;-86
2023/09/09 00:13:09;;;;;;;5.18;2.75;;;17.80;99.90;;;;;;5110841;28;20023;-85
2023/09/09 00:15:35;;;;;;;5.65;3.35;;;17.70;99.90;;;;;;5110304;28;20048;-86
2023/09/09 00:18:04;;;;;;;5.07;2.70;;;17.70;99.90;;;;;;5110355;28;20022;-85
2023/09/09 00:20:32;;;;;;;3.88;2.67;;;17.70;99.90;;;;;;5109309;28;20123;-85
2023/09/09 00:22:57;;;;;;;5.05;2.67;;;17.70;99.90;;;;;;5109189;28;20032;-86
2023/09/09 00:25:23;;;;;;;8.52;3.60;;;17.70;99.90;;;;;;5110374;28;20034;-86
2023/09/09 00:27:49;;;;;;;6.10;2.80;;;17.70;99.90;;;;;;5109791;28;20059;-87
2023/09/09 00:30:15;;;;;;;4.95;3.30;;;17.70;99.90;;;;;;5110346;28;20523;-86
2023/09/09 00:32:40;;;;;;;6.88;2.50;;;17.70;99.90;;;;;;5110610;28;20016;-83
2023/09/09 00:35:06;;;;;;;7.57;3.05;;;17.70;99.90;;;;;;5108427;28;20454;-84
2023/09/09 00:37:32;;;;;;;4.85;2.80;;;17.60;99.90;;;;;;5109173;28;20492;-87
2023/09/09 00:39:58;;;;;;;3.90;2.53;;;17.70;99.90;;;;;;5109308;28;20028;-85
2023/09/09 00:42:24;;;;;;;5.90;3.00;;;17.60;99.90;;;;;;5109951;28;20035;-85
2023/09/09 00:44:49;;;;;;;6.78;2.90;;;17.70;99.90;;;;;;5109750;28;20502;-86
2023/09/09 00:47:16;;;;;;;5.03;3.15;;;17.70;99.90;;;;;;5108236;28;20520;-85
2023/09/09 00:49:42;;;;;;;7.78;3.28;;;17.60;99.90;;;;;;5110229;28;20028;-85
2023/09/09 00:52:08;;;;;;;6.43;3.00;;;17.70;99.90;;;;;;5111527;28;20031;-87
2023/09/09 00:54:34;;;;;;;4.55;2.80;;;17.60;99.90;;;;;;5109169;28;20041;-86
2023/09/09 00:57:03;;;;;;;8.48;2.97;;;17.60;99.90;;;;;;5108899;28;20019;-86
2023/09/09 00:59:28;;;;;;;4.65;2.90;;;17.60;99.90;;;;;;5108882;28;20030;-85
2023/09/09 01:01:56;;;;;;;4.22;2.90;;;17.60;99.90;;;;;;5108784;28;20023;-85
2023/09/09 01:04:22;;;;;;;5.03;3.15;;;17.60;99.90;;;;;;5110340;28;20039;-86
2023/09/09 01:06:48;;;;;;;6.60;3.20;;;17.50;99.90;;;;;;5108612;28;20028;-86
2023/09/09 01:09:15;;;;;;;5.57;2.60;;;17.50;99.90;;;;;;5110067;28;20403;-87
2023/09/09 01:11:41;;;;;;;5.57;3.03;;;17.50;99.90;;;;;;5109086;28;20020;-86
2023/09/09 01:14:06;;;;;;;6.13;3.03;;;17.50;99.90;;;;;;5109953;28;20118;-86
2023/09/09 01:16:32;;;;;;;4.65;2.90;;;17.40;99.90;;;;;;5109727;28;20056;-87
2023/09/09 01:18:59;;;;;;;6.00;3.45;;;17.40;99.90;;;;;;5108761;28;20054;-87
2023/09/09 01:21:28;;;;;;;7.72;3.67;;;17.30;99.90;;;;;;5110070;28;20032;-86
2023/09/09 01:23:54;;;;;;;5.15;3.08;;;17.30;99.90;;;;;;5110215;28;20032;-86
2023/09/09 01:26:19;;;;;;;5.57;3.05;;;17.30;99.90;;;;;;5109913;28;20446;-86
2023/09/09 01:28:45;;;;;;;4.43;2.88;;;17.30;99.90;;;;;;5110085;28;20356;-87
2023/09/09 01:31:12;;;;;;;7.30;3.38;;;17.20;99.90;;;;;;5108952;28;20019;-85
2023/09/09 01:33:38;;;;;;;5.22;2.67;;;17.30;99.90;;;;;;5110152;28;20043;-87
2023/09/09 01:36:04;;;;;;;5.72;3.28;;;17.20;99.90;;;;;;5108656;28;20030;-86
2023/09/09 01:38:34;;;;;;;13.02;3.63;;;17.20;99.90;;;;;;5109779;28;20026;-86
2023/09/09 01:41:05;;;;;;;4.93;2.97;;;17.20;99.90;;;;;;5108380;28;20504;-86
2023/09/09 01:43:31;;;;;;;6.85;3.53;;;17.20;99.90;;;;;;5109914;28;20035;-87
2023/09/09 01:45:56;;;;;;;5.18;3.13;;;17.10;99.90;;;;;;5109189;28;20031;-86
2023/09/09 01:48:23;;;;;;;4.90;2.80;;;17.10;99.90;;;;;;5112477;28;20484;-88
2023/09/09 01:50:48;;;;;;;4.57;2.60;;;17.10;99.90;;;;;;5112848;28;20190;-86
2023/09/09 01:53:14;;;;;;;12.02;3.28;;;17.10;99.90;;;;;;5113484;28;20118;-88
2023/09/09 01:55:40;;;;;;;5.03;2.78;;;17.00;99.90;;;;;;5113386;28;20019;-87
2023/09/09 01:58:05;;;;;;;6.40;3.40;;;17.00;99.90;;;;;;5113428;28;20064;-84
2023/09/09 02:00:31;;;;;;;9.10;3.45;;;17.00;99.90;;;;;;5112141;28;20034;-88
2023/09/09 02:02:57;;;;;;;4.97;2.88;;;17.00;99.90;;;;;;5112172;28;20055;-88
2023/09/09 02:05:22;;;;;;;5.15;2.45;;;16.90;99.90;;;;;;5112767;28;20023;-87
2023/09/09 02:07:48;;;;;;;7.22;3.10;;;16.80;99.90;;;;;;5112210;28;20110;-85
2023/09/09 02:10:13;;;;;;;8.07;3.15;;;16.80;99.90;;;;;;5112099;28;20083;-86
2023/09/09 02:12:39;;;;;;;12.75;3.20;;;16.70;99.90;;;;;;5113471;28;20023;-87
2023/09/09 02:15:05;;;;;;;7.75;3.17;;;16.70;99.90;;;;;;5111737;28;20046;-87
2023/09/09 02:17:31;;;;;;;4.85;3.45;;;16.60;99.90;;;;;;5113548;28;20032;-88
2023/09/09 02:19:57;;;;;;;7.05;3.20;;;16.60;99.90;;;;;;5111816;28;20516;-88
2023/09/09 02:22:23;;;;;;;6.95;3.17;;;16.60;99.90;;;;;;5112917;28;20408;-88
2023/09/09 02:24:56;;;;;;;5.78;3.10;;;16.60;99.90;;;;;;5111945;28;20028;-85
2023/09/09 02:27:22;;;;;;;5.43;3.05;;;16.50;99.90;;;;;;5111915;28;20024;-87
2023/09/09 02:29:48;;;;;;;7.78;3.08;;;16.50;99.90;;;;;;5112175;28;20036;-87
2023/09/09 02:32:14;;;;;;;6.75;3.10;;;16.50;99.90;;;;;;5112672;28;20016;-87
2023/09/09 02:34:39;;;;;;;6.50;2.97;;;16.50;99.90;;;;;;5112719;28;20602;-87
2023/09/09 02:37:19;;;;;;;4.13;2.55;;;16.50;99.90;;;;;;5113109;28;20027;-87
2023/09/09 02:39:49;;;;;;;5.20;2.70;;;16.50;99.90;;;;;;5111349;28;20032;-88
2023/09/09 02:42:17;;;;;;;5.00;3.08;;;16.40;99.90;;;;;;5115207;28;20023;-88
2023/09/09 02:44:43;;;;;;;5.07;3.50;;;16.40;99.90;;;;;;5112807;28;20551;-87
2023/09/09 02:47:10;;;;;;;3.88;2.75;;;16.40;99.90;;;;;;5111517;28;20036;-86
2023/09/09 02:49:39;;;;;;;5.90;3.30;;;16.40;99.90;;;;;;5111485;28;20042;-87
2023/09/09 02:52:06;;;;;;;9.73;3.30;;;16.30;99.90;;;;;;5112809;28;20072;-88
2023/09/09 02:54:33;;;;;;;6.72;3.50;;;16.30;99.90;;;;;;5111593;28;20023;-88
2023/09/09 02:56:59;;;;;;;7.35;2.78;;;16.30;99.90;;;;;;5111520;28;20031;-88
2023/09/09 02:59:25;;;;;;;5.78;2.85;;;16.30;99.90;;;;;;5110454;28;20027;-88
2023/09/09 03:01:51;;;;;;;9.35;2.90;;;16.30;99.90;;;;;;5112627;28;20106;-87
2023/09/09 03:04:17;;;;;;;4.90;3.15;;;16.20;99.90;;;;;;5111312;28;20020;-89
2023/09/09 03:06:44;;;;;;;4.22;2.88;;;16.20;99.90;;;;;;5112383;28;20496;-85
2023/09/09 03:09:10;;;;;;;5.07;3.10;;;16.20;99.90;;;;;;5111130;28;20035;-86
2023/09/09 03:11:35;;;;;;;6.03;2.78;;;16.20;99.90;;;;;;5111390;28;20508;-88
2023/09/09 03:14:01;;;;;;;6.35;2.75;;;16.20;99.90;;;;;;5112302;28;20027;-87
2023/09/09 03:16:27;;;;;;;5.68;3.10;;;16.20;99.90;;;;;;5111804;28;20063;-88
2023/09/09 03:18:52;;;;;;;5.60;2.88;;;16.20;99.90;;;;;;5112204;28;20052;-88
2023/09/09 03:21:18;;;;;;;3.88;2.78;;;16.10;99.90;;;;;;5112436;28;20446;-86
2023/09/09 03:23:44;;;;;;;5.82;2.95;;;16.10;99.90;;;;;;5110725;28;20038;-87
2023/09/09 03:26:10;;;;;;;10.98;3.90;;;16.20;99.90;;;;;;5111208;28;20527;-88
2023/09/09 03:28:35;;;;;;;5.43;2.75;;;16.20;99.90;;;;;;5112035;27;20024;-88
2023/09/09 03:31:01;;;;;;;4.72;2.53;;;16.20;99.90;;;;;;5110335;28;20035;-87
2023/09/09 03:33:27;;;;;;;4.90;2.75;;;16.20;99.90;;;;;;5110992;28;20114;-86
2023/09/09 03:35:53;;;;;;;8.20;2.75;;;16.20;99.90;;;;;;5110352;28;20031;-89
2023/09/09 03:38:19;;;;;;;5.85;2.90;;;16.20;99.90;;;;;;5110270;28;20024;-87
2023/09/09 03:40:44;;;;;;;6.60;3.42;;;16.20;99.90;;;;;;5111746;28;20031;-86
2023/09/09 03:43:12;;;;;;;11.20;3.60;;;16.20;99.90;;;;;;5111774;28;20027;-87
2023/09/09 03:45:38;;;;;;;5.90;3.03;;;16.20;99.90;;;;;;5110783;28;20039;-87
2023/09/09 03:48:04;;;;;;;5.03;3.08;;;16.10;99.90;;;;;;5110552;28;20070;-87
2023/09/09 03:50:31;;;;;;;4.38;2.90;;;16.10;99.90;;;;;;5110375;28;20047;-86
2023/09/09 03:52:56;;;;;;;15.55;3.00;;;16.10;99.90;;;;;;5110648;28;20072;-87
2023/09/09 03:55:22;;;;;;;8.75;3.30;;;16.10;99.90;;;;;;5110696;28;20023;-87
2023/09/09 03:57:47;;;;;;;7.63;3.90;;;16.20;99.90;;;;;;5110030;28;20027;-88
2023/09/09 04:00:14;;;;;;;7.75;3.53;;;16.20;99.90;;;;;;5109898;28;20012;-88
2023/09/09 04:02:39;;;;;;;5.95;2.75;;;16.20;99.90;;;;;;5110092;28;20035;-87
2023/09/09 04:05:07;;;;;;;6.85;3.17;;;16.20;99.90;;;;;;5109958;28;20030;-87
2023/09/09 04:07:35;;;;;;;9.25;3.00;;;16.20;99.90;;;;;;5109998;28;20124;-87
2023/09/09 04:10:08;;;;;;;17.33;3.80;;;16.20;99.90;;;;;;5109385;28;20508;-88
2023/09/09 04:12:33;;;;;;;9.25;3.92;;;16.20;99.90;;;;;;5107819;28;20107;-86
2023/09/09 04:14:59;;;;;;;11.85;4.00;;;16.30;99.90;;;;;;5109467;28;20176;-87
2023/09/09 04:17:25;;;;;;;11.05;4.32;;;16.30;99.90;;;;;;5110145;28;20428;-88
2023/09/09 04:19:50;;;;;;;5.75;3.38;;;16.30;99.90;;;;;;5111228;28;20349;-87
2023/09/09 04:22:16;;;;;;;8.00;3.38;;;16.30;99.90;;;;;;5109624;28;20561;-87
2023/09/09 04:24:42;;;;;;;5.90;3.22;;;16.40;99.90;;;;;;5109527;28;20030;-86
2023/09/09 04:27:07;;;;;;;4.82;3.00;;;16.40;99.90;;;;;;5109261;28;20027;-88
2023/09/09 04:29:33;;;;;;;10.70;3.60;;;16.40;99.90;;;;;;5109264;28;20039;-87
2023/09/09 04:31:59;;;;;;;6.75;4.63;;;16.40;99.90;;;;;;5110744;28;20023;-87
2023/09/09 04:34:24;;;;;;;6.45;4.60;;;16.40;99.90;;;;;;5110388;28;20040;-88
2023/09/09 04:36:50;;;;;;;8.93;5.05;;;16.30;99.90;;;;;;5110212;28;20026;-86
2023/09/09 04:39:16;;;;;;;10.05;4.93;;;16.40;99.90;;;;;;5110419;28;20492;-86
2023/09/09 04:41:42;;;;;;;6.40;4.25;;;16.40;99.90;;;;;;5109256;28;20028;-87
2023/09/09 04:44:09;;;;;;;11.50;4.10;;;16.40;99.90;;;;;;5109316;28;20417;-87
2023/09/09 04:46:34;;;;;;;10.10;4.30;;;16.40;99.90;;;;;;5109267;28;20038;-88
2023/09/09 04:49:00;;;;;;;9.38;3.22;;;16.50;99.90;;;;;;5110402;28;20036;-88
2023/09/09 04:51:26;;;;;;;6.75;3.20;;;16.60;99.90;;;;;;5109620;28;20023;-87
2023/09/09 04:53:52;;;;;;;5.30;3.03;;;16.70;99.90;;;;;;5110475;28;20552;-88
2023/09/09 04:56:18;;;;;;;7.10;3.10;;;16.80;99.90;;;;;;5109302;28;20496;-88
2023/09/09 04:58:43;;;;;;;6.00;3.05;;;17.10;99.90;;;;;;5109280;28;20119;-88
2023/09/09 05:01:09;;;;;;;8.75;4.25;;;17.50;99.90;;;;;;5109369;28;20035;-86
2023/09/09 05:03:35;;;;;;;10.50;4.18;;;17.70;99.90;;;;;;5110334;28;20020;-87
2023/09/09 05:06:01;;;;;;;7.78;3.33;;;17.80;99.90;;;;;;5109326;28;20507;-87
2023/09/09 05:08:27;;;;;;;6.32;3.63;;;17.80;99.90;;;;;;5108604;28;20035;-87
2023/09/09 05:10:52;;;;;;;6.45;3.65;;;17.70;99.90;;;;;;5110052;28;20028;-88
2023/09/09 05:13:18;;;;;;;5.30;2.92;;;17.70;99.90;;;;;;5108682;28;20053;-88
2023/09/09 05:15:44;;;;;;;5.13;3.25;;;17.80;99.90;;;;;;5109782;28;20051;-86
2023/09/09 05:18:10;;;;;;;8.77;3.40;;;18.00;99.90;;;;;;5109873;28;20031;-86
2023/09/09 05:20:35;;;;;;;5.50;3.50;;;18.40;99.90;;;;;;5109983;28;20028;-83
2023/09/09 05:23:01;;;;;;;9.20;3.17;;;18.90;99.90;;;;;;5112424;28;20050;-82
2023/09/09 05:25:27;;;;;;;7.85;3.47;;;19.40;99.90;;;;;;5113525;28;20032;-85
2023/09/09 05:27:53;;;;;;;4.43;2.92;;;19.90;99.90;;;;;;5113792;28;20031;-84
2023/09/09 05:30:19;;;;;;;5.53;3.53;;;20.30;99.90;;;;;;5112259;28;20092;-84
2023/09/09 05:32:45;;;;;;;7.03;3.03;;;20.70;99.90;;;;;;5112763;28;20479;-83
2023/09/09 05:35:11;;;;;;;5.28;2.95;;;21.10;99.90;;;;;;5113907;28;20023;-83
2023/09/09 05:37:37;;;;;;;7.68;3.25;;;21.50;99.90;;;;;;5113138;28;20499;-81
2023/09/09 05:40:03;;;;;;;5.65;3.42;;;21.70;99.90;;;;;;5113214;28;20088;-83
2023/09/09 05:42:29;;;;;;;6.70;4.10;;;21.90;99.90;;;;;;5112838;28;20039;-82
2023/09/09 05:44:54;;;;;;;9.07;5.13;;;22.10;98.20;;;;;;5113196;28;20528;-82
2023/09/09 05:47:20;;;;;;;7.70;4.55;;;22.30;97.30;;;;;;5113271;28;20023;-82
2023/09/09 05:49:46;;;;;;;11.38;4.55;;;22.60;96.70;;;;;;5112372;28;20058;-81
2023/09/09 05:52:12;;;;;;;8.98;4.03;;;22.70;95.80;;;;;;5113823;28;20110;-82
2023/09/09 05:54:38;;;;;;;7.05;4.07;;;22.80;95.00;;;;;;5112852;28;20024;-81
2023/09/09 05:57:04;;;;;;;5.57;3.88;;;23.00;94.00;;;;;;5113800;28;20027;-81
2023/09/09 05:59:31;;;;;;;15.10;3.72;;;23.00;93.60;;;;;;5114280;28;20020;-83
2023/09/09 06:01:56;;;;;;;15.63;4.22;;;23.20;93.70;;;;;;5120798;28;20567;-81
2023/09/09 06:04:22;;;;;;;10.82;4.30;;;23.30;93.40;;;;;;5114671;28;20076;-82
2023/09/09 06:06:49;;;;;;;10.82;4.97;;;23.50;93.00;;;;;;5113564;28;20381;-82
2023/09/09 06:09:14;;;;;;;14.30;5.47;;;23.70;92.60;;;;;;5114085;28;20114;-82
2023/09/09 06:11:40;;;;;;;20.50;5.47;;;23.90;92.00;;;;;;5112663;28;20180;-83
2023/09/09 06:14:06;;;;;;;16.27;6.82;;;24.30;91.40;;;;;;5113557;28;20020;-83
2023/09/09 06:16:32;;;;;;;16.77;7.20;;;24.80;90.30;;;;;;5111484;28;20711;-82
2023/09/09 06:18:58;;;;;;;11.98;7.72;;;25.20;88.20;;;;;;5111318;28;20019;-83
2023/09/09 06:21:25;;;;;;;14.80;8.70;;;25.70;86.40;;;;;;5113049;28;20574;-83
2023/09/09 06:23:50;;;;;;;18.80;11.10;;;26.20;84.30;;;;;;5111044;28;20019;-83
2023/09/09 06:26:16;;;;;;;24.33;12.75;;;26.60;81.60;;;;;;5111501;28;20037;-82
2023/09/09 06:28:42;;;;;;;22.05;11.20;;;26.90;79.00;;;;;;5112176;28;20023;-84
2023/09/09 06:31:07;;;;;;;22.02;9.20;;;27.40;76.50;;;;;;5112528;28;20041;-84
2023/09/09 06:33:34;;;;;;;24.67;10.60;;;28.00;73.60;;;;;;5109662;28;20368;-85
2023/09/09 06:35:59;;;;;;;24.58;11.35;;;28.40;71.50;;;;;;5111231;28;20039;-85
2023/09/09 06:38:25;;;;;;;21.85;10.25;;;28.80;69.80;;;;;;5110458;28;20020;-84
2023/09/09 06:40:51;;;;;;;19.52;7.50;;;29.10;68.20;;;;;;5111931;28;20035;-82
2023/09/09 06:43:21;;;;;;;11.07;5.78;;;29.50;65.80;;;;;;5110682;28;20020;-83
2023/09/09 06:45:48;;;;;;;11.52;6.10;;;29.80;63.20;;;;;;5111844;28;20441;-83
2023/09/09 06:48:17;;;;;;;10.32;5.53;;;30.00;61.20;;;;;;5111970;28;20020;-81
2023/09/09 06:50:45;;;;;;;10.07;5.80;;;30.40;60.50;;;;;;5112058;28;20039;-83
2023/09/09 06:53:11;;;;;;;11.40;5.78;;;30.90;58.50;;;;;;5106052;28;20101;-79
2023/09/09 06:55:36;;;;;;;9.73;5.07;;;30.90;58.60;;;;;;5085804;28;20024;-83
2023/09/09 06:58:03;;;;;;;12.32;4.68;;;31.20;56.30;;;;;;5090214;28;20024;-82
2023/09/09 07:00:29;;;;;;;11.18;3.92;;;31.10;52.60;;;;;;5091202;28;20099;-83
2023/09/09 07:02:55;;;;;;;5.53;3.15;;;31.60;50.10;;;;;;5091190;28;20030;-81
2023/09/09 07:05:21;;;;;;;10.68;3.58;;;32.20;50.30;;;;;;5091084;28;20492;-81
2023/09/09 07:07:46;;;;;;;8.23;4.00;;;32.40;48.10;;;;;;5089463;28;20042;-83
2023/09/09 07:10:12;;;;;;;7.00;3.45;;;32.80;47.70;;;;;;5089592;28;20111;-82
2023/09/09 07:12:38;;;;;;;8.18;3.15;;;32.80;46.80;;;;;;5089917;28;20026;-82
2023/09/09 07:15:04;;;;;;;6.68;3.47;;;33.50;45.60;;;;;;5090838;28;20036;-83
2023/09/09 07:17:30;;;;;;;12.35;4.43;;;33.80;44.00;;;;;;5090370;28;20443;-82
2023/09/09 07:19:56;;;;;;;6.53;3.50;;;33.90;44.00;;;;;;5090732;28;20128;-84
2023/09/09 07:22:21;;;;;;;11.73;3.63;;;34.10;42.10;;;;;;5090036;28;20120;-85
2023/09/09 07:24:47;;;;;;;11.88;3.92;;;34.20;42.10;;;;;;5089421;28;20047;-86
2023/09/09 07:27:13;;;;;;;10.45;4.22;;;34.30;41.90;;;;;;5089730;28;20032;-86
2023/09/09 07:29:38;;;;;;;11.55;4.20;;;34.60;40.70;;;;;;5089865;28;20044;-84
2023/09/09 07:32:04;;;;;;;12.05;3.50;;;34.30;41.90;;;;;;5089962;28;20081;-86
2023/09/09 07:34:30;;;;;;;10.23;3.50;;;34.70;41.40;;;;;;5089074;28;20032;-85
2023/09/09 07:36:56;;;;;;;21.17;5.13;;;35.10;39.50;;;;;;5090267;28;20035;-84
2023/09/09 07:39:21;;;;;;;9.10;3.25;;;35.20;40.40;;;;;;5091066;28;20030;-85
2023/09/09 07:41:47;;;;;;;11.63;3.67;;;35.20;40.70;;;;;;5089409;28;20076;-85
2023/09/09 07:44:13;;;;;;;26.58;4.18;;;35.40;40.90;;;;;;5089144;28;20028;-86
2023/09/09 07:46:38;;;;;;;13.60;3.75;;;35.60;40.40;;;;;;5089867;28;20168;-87
2023/09/09 07:49:04;;;;;;;10.68;3.15;;;35.80;40.50;;;;;;5090273;28;20493;-84
2023/09/09 07:51:30;;;;;;;6.35;3.70;;;36.40;39.20;;;;;;5089366;28;20036;-85
2023/09/09 07:53:55;;;;;;;14.35;4.30;;;36.40;36.60;;;;;;5090496;28;20028;-85
2023/09/09 07:56:21;;;;;;;9.55;4.30;;;36.40;36.50;;;;;;5090428;28;20020;-84
2023/09/09 07:58:46;;;;;;;13.38;3.60;;;36.90;36.80;;;;;;5090607;28;20428;-84
2023/09/09 08:01:13;;;;;;;11.65;3.28;;;37.10;37.10;;;;;;5089306;28;20024;-85
2023/09/09 08:03:39;;;;;;;5.90;3.50;;;37.50;36.30;;;;;;5090529;28;20504;-85
2023/09/09 08:06:06;;;;;;;7.70;3.80;;;37.60;35.30;;;;;;5091011;28;20028;-85
2023/09/09 08:08:35;;;;;;;9.05;4.32;;;37.60;35.60;;;;;;5088800;28;20507;-83
2023/09/09 08:11:02;;;;;;;11.77;3.72;;;37.30;33.90;;;;;;5088233;28;20032;-82
2023/09/09 08:13:28;;;;;;;9.43;3.67;;;37.20;35.30;;;;;;5088746;28;20531;-83
2023/09/09 08:15:54;;;;;;;8.55;4.25;;;36.90;34.60;;;;;;5088257;28;20083;-83
2023/09/09 08:18:19;;;;;;;11.25;3.83;;;36.10;35.10;;;;;;5088803;28;20028;-86
2023/09/09 08:20:52;;;;;;;13.82;4.32;;;36.30;35.70;;;;;;5088544;28;20511;-84
2023/09/09 08:23:18;;;;;;;10.82;3.72;;;36.70;35.30;;;;;;5088593;28;20500;-85
2023/09/09 08:25:44;;;;;;;8.43;3.55;;;36.50;34.80;;;;;;5090607;28;20106;-83
2023/09/09 08:28:10;;;;;;;8.13;3.63;;;36.40;35.10;;;;;;5090396;28;20039;-83
2023/09/09 08:30:35;;;;;;;8.20;2.95;;;36.40;35.60;;;;;;5092277;28;20039;-84
2023/09/09 08:33:01;;;;;;;7.00;3.13;;;36.20;34.70;;;;;;5093026;28;20038;-84
2023/09/09 08:35:30;;;;;;;11.57;4.03;;;36.20;36.30;;;;;;5091565;28;20032;-83
2023/09/09 08:37:55;;;;;;;5.47;3.20;;;36.40;36.70;;;;;;5088103;28;20114;-83
2023/09/09 08:40:21;;;;;;;7.13;3.03;;;36.70;36.30;;;;;;5088262;28;20119;-82
2023/09/09 08:43:02;;;;;;;11.30;3.58;;;36.60;36.30;;;;;;5088348;28;20039;-83
2023/09/09 08:45:52;;;;;;;12.65;3.25;;;36.60;35.50;;;;;;5088906;28;20013;-82
2023/09/09 08:48:19;;;;;;;4.55;3.00;;;36.70;35.90;;;;;;5089522;28;20029;-85
2023/09/09 08:50:48;;;;;;;8.23;2.95;;;36.70;35.10;;;;;;5089722;28;20040;-84
2023/09/09 08:53:17;;;;;;;10.07;3.42;;;37.00;35.30;;;;;;5089965;28;20032;-85
2023/09/09 08:55:43;;;;;;;5.25;3.42;;;37.20;34.70;;;;;;5088946;28;20032;-85
2023/09/09 08:58:09;;;;;;;13.73;3.53;;;37.50;34.80;;;;;;5088080;28;20488;-83
2023/09/09 09:00:37;;;;;;;19.52;5.22;;;37.60;33.80;;;;;;5091087;28;20377;-85
2023/09/09 09:03:04;;;;;;;9.93;4.55;;;37.50;34.20;;;;;;5091387;28;20016;-85
2023/09/09 09:05:31;;;;;;;7.30;3.80;;;37.40;34.60;;;;;;5089509;28;20042;-85
2023/09/09 09:07:57;;;;;;;11.30;3.47;;;37.60;34.90;;;;;;5088753;28;20077;-85
2023/09/09 09:10:23;;;;;;;10.25;3.58;;;37.90;34.70;;;;;;5089296;28;20044;-81
2023/09/09 09:12:49;;;;;;;6.68;3.50;;;37.90;34.40;;;;;;5090294;28;20028;-83
2023/09/09 09:15:14;;;;;;;7.85;4.05;;;37.90;33.70;;;;;;5089531;28;20086;-85
2023/09/09 09:17:44;;;;;;;6.82;3.03;;;37.90;33.90;;;;;;5087426;28;20081;-83
2023/09/09 09:20:31;;;;;;;6.43;3.47;;;37.80;34.00;;;;;;5089384;28;20937;-85
2023/09/09 09:23:09;;;;;;;13.48;3.97;;;37.90;33.90;;;;;;5087645;28;20389;-83
2023/09/09 09:25:37;;;;;;;11.52;3.80;;;37.90;32.10;;;;;;5087356;28;20116;-82
2023/09/09 09:28:03;;;;;;;9.15;3.85;;;37.50;32.90;;;;;;5087833;28;20032;-85
2023/09/09 09:30:31;;;;;;;6.65;3.50;;;37.30;33.20;;;;;;5088175;28;20036;-83
2023/09/09 09:32:57;;;;;;;6.28;3.35;;;37.20;34.40;;;;;;5088587;28;20135;-84
2023/09/09 09:35:26;;;;;;;5.55;3.35;;;37.10;34.90;;;;;;5088736;28;20028;-84
2023/09/09 09:37:56;;;;;;;8.43;4.00;;;36.90;34.80;;;;;;5089617;28;20039;-84
2023/09/09 09:40:22;;;;;;;11.13;3.63;;;37.00;34.80;;;;;;5087735;28;20032;-87
2023/09/09 09:42:49;;;;;;;7.53;3.55;;;37.40;34.70;;;;;;5089067;28;20028;-84
2023/09/09 09:45:15;;;;;;;7.07;3.83;;;37.60;33.70;;;;;;5089441;28;20024;-88
2023/09/09 09:47:48;;;;;;;13.68;3.22;;;37.80;33.40;;;;;;5089766;28;20031;-82
2023/09/09 09:50:19;;;;;;;9.13;3.55;;;37.90;32.40;;;;;;5088220;28;20032;-86
2023/09/09 09:52:56;;;;;;;6.47;3.28;;;37.80;32.50;;;;;;5088444;28;20399;-86
2023/09/09 09:55:21;;;;;;;7.30;3.78;;;37.60;32.10;;;;;;5087656;28;20101;-86
2023/09/09 09:57:48;;;;;;;9.45;3.40;;;37.20;32.60;;;;;;5088766;28;20492;-85
2023/09/09 10:00:16;;;;;;;10.63;3.35;;;37.10;33.20;;;;;;5089131;28;20024;-85
2023/09/09 10:02:42;;;;;;;10.98;3.50;;;37.00;33.70;;;;;;5087956;28;20546;-85
2023/09/09 10:05:12;;;;;;;6.97;3.58;;;37.20;33.60;;;;;;5089757;28;20401;-84
2023/09/09 10:07:42;;;;;;;5.30;2.95;;;37.40;32.60;;;;;;5091501;28;20023;-84
2023/09/09 10:10:11;;;;;;;6.82;3.38;;;37.10;33.80;;;;;;5094271;28;20036;-86
2023/09/09 10:12:45;;;;;;;8.15;3.53;;;37.20;33.70;;;;;;5092707;28;20024;-86
2023/09/09 10:15:12;;;;;;;5.53;3.17;;;37.30;34.40;;;;;;5092674;28;20381;-86
2023/09/09 10:17:39;;;;;;;9.18;3.45;;;37.30;34.00;;;;;;5092450;28;20570;-82
2023/09/09 10:20:06;;;;;;;5.40;3.15;;;37.40;33.60;;;;;;5092711;28;20363;-82
2023/09/09 10:22:33;;;;;;;10.88;3.45;;;37.10;34.70;;;;;;5091058;28;20066;-84
2023/09/09 10:25:03;;;;;;;14.00;3.55;;;36.50;35.10;;;;;;5092595;28;20453;-85
2023/09/09 10:27:29;;;;;;;5.63;3.10;;;36.00;35.20;;;;;;5092539;28;20496;-85
2023/09/09 10:29:57;;;;;;;4.90;2.67;;;35.50;35.40;;;;;;5092402;28;20115;-83
2023/09/09 10:32:25;;;;;;;7.22;4.05;;;34.80;36.90;;;;;;5092965;28;20400;-86
2023/09/09 10:34:53;;;;;;;7.55;3.40;;;34.20;36.80;;;;;;5093106;28;20036;-84
2023/09/09 10:37:19;;;;;;;8.65;3.05;;;33.50;38.30;;;;;;5092044;28;20016;-81
2023/09/09 10:39:49;;;;;;;7.13;2.80;;;33.10;38.60;;;;;;5091325;28;20024;-84
2023/09/09 10:42:17;;;;;;;5.65;2.70;;;32.70;39.60;;;;;;5092235;28;20577;-84
2023/09/09 10:44:49;;;;;;;5.95;2.95;;;32.50;40.10;;;;;;5093563;28;20098;-83
2023/09/09 10:47:19;;;;;;;10.88;3.20;;;32.30;40.00;;;;;;5094283;28;20031;-84
2023/09/09 10:49:44;;;;;;;9.27;3.28;;;32.10;39.50;;;;;;5094011;28;20066;-84
2023/09/09 10:52:30;;;;;;;12.35;3.50;;;31.90;40.10;;;;;;5092330;28;20052;-83
2023/09/09 10:55:14;;;;;;;8.93;3.35;;;31.70;40.20;;;;;;5092139;28;20020;-83
2023/09/09 10:57:40;;;;;;;6.07;3.33;;;31.50;40.90;;;;;;5092316;28;20043;-85
2023/09/09 11:00:09;;;;;;;5.43;3.10;;;31.30;41.80;;;;;;5092418;28;20028;-85
2023/09/09 11:02:48;;;;;;;7.68;3.40;;;31.30;41.80;;;;;;5092739;28;20067;-86
2023/09/09 11:05:15;;;;;;;7.85;3.25;;;31.10;42.00;;;;;;5093948;28;20025;-85
2023/09/09 11:07:42;;;;;;;8.10;3.58;;;30.70;41.20;;;;;;5093321;28;20034;-86
2023/09/09 11:10:08;;;;;;;10.82;3.30;;;30.60;42.50;;;;;;5093355;28;20492;-85
2023/09/09 11:12:34;;;;;;;11.93;3.33;;;30.30;41.70;;;;;;5092248;28;20069;-85
2023/09/09 11:15:08;;;;;;;5.65;3.28;;;30.00;43.40;;;;;;5092395;28;20052;-85
2023/09/09 11:17:43;;;;;;;6.60;3.83;;;30.00;44.40;;;;;;5090943;28;20031;-86
2023/09/09 11:20:13;;;;;;;10.27;3.37;;;30.00;44.70;;;;;;5090673;28;20484;-86
2023/09/09 11:22:42;;;;;;;8.88;3.38;;;30.20;44.90;;;;;;5093525;28;20103;-87
2023/09/09 11:25:08;;;;;;;8.82;3.20;;;30.20;43.70;;;;;;5092252;28;20125;-86
2023/09/09 11:27:34;;;;;;;6.15;3.13;;;30.00;44.00;;;;;;5092805;28;20104;-85
2023/09/09 11:30:00;;;;;;;7.88;3.40;;;29.80;43.30;;;;;;5090715;28;20044;-83
2023/09/09 11:32:28;;;;;;;5.80;3.60;;;29.60;44.40;;;;;;5091489;28;20058;-84
2023/09/09 11:34:55;;;;;;;7.15;3.85;;;29.40;44.70;;;;;;5092019;28;20027;-84
2023/09/09 11:37:24;;;;;;;4.78;3.15;;;29.40;44.30;;;;;;5091815;28;20515;-85
2023/09/09 11:39:54;;;;;;;6.13;3.17;;;29.40;45.20;;;;;;5092756;28;20024;-86
2023/09/09 11:42:23;;;;;;;3.55;2.50;;;29.40;45.20;;;;;;5090957;28;20047;-84
2023/09/09 11:44:49;;;;;;;4.68;3.05;;;29.50;45.20;;;;;;5091770;28;20126;-84
2023/09/09 11:47:16;;;;;;;7.80;3.45;;;29.60;45.70;;;;;;5093731;28;20217;-86
2023/09/09 11:49:44;;;;;;;13.52;3.20;;;29.70;43.80;;;;;;5092966;28;20040;-86
2023/09/09 11:52:10;;;;;;;5.88;3.00;;;29.70;44.10;;;;;;5092190;28;20024;-86
2023/09/09 11:54:36;;;;;;;6.20;3.20;;;29.80;45.20;;;;;;5092789;28;20034;-83
2023/09/09 11:57:07;;;;;;;6.40;2.75;;;29.80;45.20;;;;;;5091733;28;20020;-86
2023/09/09 11:59:43;;;;;;;4.32;2.65;;;29.80;44.50;;;;;;5093108;28;20032;-86
2023/09/09 12:02:17;;;;;;;5.47;2.80;;;29.80;44.60;;;;;;5091994;28;20401;-85
2023/09/09 12:05:01;;;;;;;18.20;3.40;;;29.80;44.90;;;;;;5091766;28;20052;-86
2023/09/09 12:07:30;;;;;;;8.00;3.30;;;29.90;45.30;;;;;;5092601;28;20047;-84
2023/09/09 12:09:58;;;;;;;6.57;3.08;;;30.00;44.30;;;;;;5092324;28;20024;-85
2023/09/09 12:12:24;;;;;;;10.93;3.42;;;30.00;44.20;;;;;;5089156;28;20602;-82
2023/09/09 12:14:51;;;;;;;5.63;3.38;;;30.10;43.70;;;;;;5089766;28;20035;-82
2023/09/09 12:17:16;;;;;;;7.70;3.10;;;30.00;43.10;;;;;;5089783;28;20040;-81
2023/09/09 12:19:42;;;;;;;6.30;3.50;;;29.90;44.00;;;;;;5088185;28;20633;-82
2023/09/09 12:22:08;;;;;;;5.40;2.42;;;30.00;44.70;;;;;;5090359;28;20028;-83
2023/09/09 12:24:41;;;;;;;6.80;2.95;;;29.90;43.70;;;;;;5091890;28;20024;-85
2023/09/09 12:27:06;;;;;;;8.50;3.15;;;29.90;44.30;;;;;;5092174;28;20024;-85
2023/09/09 12:29:33;;;;;;;5.78;2.70;;;29.90;44.30;;;;;;5092378;28;20084;-84
2023/09/09 12:31:59;;;;;;;6.88;2.63;;;30.00;44.90;;;;;;5092358;28;20115;-86
2023/09/09 12:34:26;;;;;;;5.20;3.30;;;30.00;44.50;;;;;;5091910;28;20174;-85
2023/09/09 12:36:59;;;;;;;6.10;2.72;;;30.10;44.50;;;;;;5091267;28;20035;-84
2023/09/09 12:39:27;;;;;;;7.30;3.05;;;30.20;44.20;;;;;;5090966;28;20031;-84
2023/09/09 12:42:00;;;;;;;8.82;2.80;;;30.20;43.50;;;;;;5091447;28;20403;-84